Terminal Aerodrome Forecast
Issued by NWS Cleveland, OH

Home | Current Version | Previous Version | Graphics & Text | Print | Product List | Glossary On
Versions: 1 2 3 4 5 6 7 8 9 10
659
FTUS41 KCLE 221728
TAFERI
TAF
KERI 221728Z 2218/2318 01010KT P6SM OVC035
     FM221900 01010KT P6SM SCT035 BKN150
     FM222300 VRB03KT P6SM BKN250=

USA.gov is the U.S. government's official web portal to all federal, state and local government web resources and services.